sensor_id;sensor_type;location;lat;lon;timestamp;temperature;humidity
51500;DHT22;39101;53.478;6.158;2023-03-01T00:01:36;0.30;99.90
51500;DHT22;39101;53.478;6.158;2023-03-01T00:04:02;-0.30;99.90
51500;DHT22;39101;53.478;6.158;2023-03-01T00:06:28;-0.20;99.90
51500;DHT22;39101;53.478;6.158;2023-03-01T00:08:55;-0.30;99.90
51500;DHT22;39101;53.478;6.158;2023-03-01T00:11:27;-0.20;99.90
51500;DHT22;39101;53.478;6.158;2023-03-01T00:13:59;-0.30;99.90
51500;DHT22;39101;53.478;6.158;2023-03-01T00:16:34;-0.20;99.90
51500;DHT22;39101;53.478;6.158;2023-03-01T00:19:02;-0.30;99.90
51500;DHT22;39101;53.478;6.158;2023-03-01T00:21:28;0.10;99.90
51500;DHT22;39101;53.478;6.158;2023-03-01T00:23:54;-0.20;99.90
51500;DHT22;39101;53.478;6.158;2023-03-01T00:26:22;-0.20;99.90
51500;DHT22;39101;53.478;6.158;2023-03-01T00:28:56;0.10;99.90
51500;DHT22;39101;53.478;6.158;2023-03-01T00:31:24;0.30;99.90
51500;DHT22;39101;53.478;6.158;2023-03-01T00:33:56;-0.30;99.90
51500;DHT22;39101;53.478;6.158;2023-03-01T00:36:23;0.30;99.90
51500;DHT22;39101;53.478;6.158;2023-03-01T00:38:50;-0.20;99.90
51500;DHT22;39101;53.478;6.158;2023-03-01T00:41:18;-0.20;99.90
51500;DHT22;39101;53.478;6.158;2023-03-01T00:43:47;-0.20;99.90
51500;DHT22;39101;53.478;6.158;2023-03-01T00:46:24;-0.20;99.90
51500;DHT22;39101;53.478;6.158;2023-03-01T00:48:50;0.90;99.90
51500;DHT22;39101;53.478;6.158;2023-03-01T00:51:25;-0.30;99.90
51500;DHT22;39101;53.478;6.158;2023-03-01T00:53:55;-0.20;99.90
51500;DHT22;39101;53.478;6.158;2023-03-01T00:56:22;0.40;99.90
51500;DHT22;39101;53.478;6.158;2023-03-01T00:58:49;-0.20;99.90
51500;DHT22;39101;53.478;6.158;2023-03-01T01:01:21;-0.20;99.90
51500;DHT22;39101;53.478;6.158;2023-03-01T01:03:56;0.30;99.90
51500;DHT22;39101;53.478;6.158;2023-03-01T01:06:41;-0.20;99.90
51500;DHT22;39101;53.478;6.158;2023-03-01T01:09:11;-0.20;99.90
51500;DHT22;39101;53.478;6.158;2023-03-01T01:11:45;-0.20;99.90
51500;DHT22;39101;53.478;6.158;2023-03-01T01:14:15;-0.10;99.90
51500;DHT22;39101;53.478;6.158;2023-03-01T01:16:41;-0.10;99.90
51500;DHT22;39101;53.478;6.158;2023-03-01T01:19:07;-0.10;99.90
51500;DHT22;39101;53.478;6.158;2023-03-01T01:21:33;0.00;99.90
51500;DHT22;39101;53.478;6.158;2023-03-01T01:23:59;0.00;99.90
51500;DHT22;39101;53.478;6.158;2023-03-01T01:26:28;-0.10;99.90
51500;DHT22;39101;53.478;6.158;2023-03-01T01:28:55;-0.10;99.90
51500;DHT22;39101;53.478;6.158;2023-03-01T01:31:23;-0.10;99.90
51500;DHT22;39101;53.478;6.158;2023-03-01T01:33:50;1.30;99.90
51500;DHT22;39101;53.478;6.158;2023-03-01T01:36:16;0.20;99.90
51500;DHT22;39101;53.478;6.158;2023-03-01T01:38:41;0.20;99.90
51500;DHT22;39101;53.478;6.158;2023-03-01T01:41:11;0.60;99.90
51500;DHT22;39101;53.478;6.158;2023-03-01T01:44:08;0.00;99.90
51500;DHT22;39101;53.478;6.158;2023-03-01T01:46:46;0.00;99.90
51500;DHT22;39101;53.478;6.158;2023-03-01T01:49:32;-0.10;99.90
51500;DHT22;39101;53.478;6.158;2023-03-01T01:52:30;-0.10;99.90
51500;DHT22;39101;53.478;6.158;2023-03-01T01:55:10;-0.30;99.90
51500;DHT22;39101;53.478;6.158;2023-03-01T01:57:43;-0.30;99.90
51500;DHT22;39101;53.478;6.158;2023-03-01T02:00:14;-0.30;99.90
51500;DHT22;39101;53.478;6.158;2023-03-01T02:02:43;-0.20;99.90
51500;DHT22;39101;53.478;6.158;2023-03-01T02:05:35;-0.30;99.90
51500;DHT22;39101;53.478;6.158;2023-03-01T02:08:13;-0.30;99.90
51500;DHT22;39101;53.478;6.158;2023-03-01T02:10:39;-0.30;99.90
51500;DHT22;39101;53.478;6.158;2023-03-01T02:13:06;-0.30;99.90
51500;DHT22;39101;53.478;6.158;2023-03-01T02:15:37;-0.30;99.90
51500;DHT22;39101;53.478;6.158;2023-03-01T02:18:06;-0.10;99.90
51500;DHT22;39101;53.478;6.158;2023-03-01T02:24:00;-0.30;99.90
51500;DHT22;39101;53.478;6.158;2023-03-01T02:26:34;-0.30;99.90
51500;DHT22;39101;53.478;6.158;2023-03-01T02:29:02;-0.40;99.90
51500;DHT22;39101;53.478;6.158;2023-03-01T02:31:28;-0.30;99.90
51500;DHT22;39101;53.478;6.158;2023-03-01T02:34:16;-0.30;99.90
51500;DHT22;39101;53.478;6.158;2023-03-01T02:36:49;-0.20;99.90
51500;DHT22;39101;53.478;6.158;2023-03-01T02:39:33;-0.20;99.90
51500;DHT22;39101;53.478;6.158;2023-03-01T02:42:02;-0.30;99.90
51500;DHT22;39101;53.478;6.158;2023-03-01T02:44:29;-0.20;99.90
51500;DHT22;39101;53.478;6.158;2023-03-01T02:46:56;-0.20;99.90
51500;DHT22;39101;53.478;6.158;2023-03-01T02:49:35;-0.20;99.90
51500;DHT22;39101;53.478;6.158;2023-03-01T02:55:11;-0.30;99.90
51500;DHT22;39101;53.478;6.158;2023-03-01T02:57:40;-0.20;99.90
51500;DHT22;39101;53.478;6.158;2023-03-01T03:02:36;-0.20;99.90
51500;DHT22;39101;53.478;6.158;2023-03-01T03:05:14;-0.10;99.90
51500;DHT22;39101;53.478;6.158;2023-03-01T03:07:42;0.00;99.90
51500;DHT22;39101;53.478;6.158;2023-03-01T03:10:19;0.20;99.90
51500;DHT22;39101;53.478;6.158;2023-03-01T03:12:53;0.00;99.90
51500;DHT22;39101;53.478;6.158;2023-03-01T03:15:20;0.00;99.90
51500;DHT22;39101;53.478;6.158;2023-03-01T03:17:46;0.10;99.90
51500;DHT22;39101;53.478;6.158;2023-03-01T03:20:14;0.10;99.90
51500;DHT22;39101;53.478;6.158;2023-03-01T03:22:46;0.10;99.90
51500;DHT22;39101;53.478;6.158;2023-03-01T03:25:12;0.10;99.90
51500;DHT22;39101;53.478;6.158;2023-03-01T03:27:38;0.20;99.90
51500;DHT22;39101;53.478;6.158;2023-03-01T03:30:06;0.20;99.90
51500;DHT22;39101;53.478;6.158;2023-03-01T03:32:36;0.20;99.90
51500;DHT22;39101;53.478;6.158;2023-03-01T03:35:03;0.20;99.90
51500;DHT22;39101;53.478;6.158;2023-03-01T03:37:39;0.20;99.90
51500;DHT22;39101;53.478;6.158;2023-03-01T03:40:24;0.20;99.90
51500;DHT22;39101;53.478;6.158;2023-03-01T03:42:50;0.20;99.90
51500;DHT22;39101;53.478;6.158;2023-03-01T03:45:17;1.40;99.90
51500;DHT22;39101;53.478;6.158;2023-03-01T03:47:44;0.40;99.90
51500;DHT22;39101;53.478;6.158;2023-03-01T03:50:12;0.40;99.90
51500;DHT22;39101;53.478;6.158;2023-03-01T03:52:38;1.30;99.90
51500;DHT22;39101;53.478;6.158;2023-03-01T03:55:05;0.40;99.90
51500;DHT22;39101;53.478;6.158;2023-03-01T03:57:39;0.50;99.90
51500;DHT22;39101;53.478;6.158;2023-03-01T04:00:08;0.60;99.90
51500;DHT22;39101;53.478;6.158;2023-03-01T04:02:40;0.60;99.90
51500;DHT22;39101;53.478;6.158;2023-03-01T04:05:07;1.00;99.90
51500;DHT22;39101;53.478;6.158;2023-03-01T04:07:35;0.60;99.90
51500;DHT22;39101;53.478;6.158;2023-03-01T04:10:08;0.50;99.90
51500;DHT22;39101;53.478;6.158;2023-03-01T04:12:36;0.50;99.90
51500;DHT22;39101;53.478;6.158;2023-03-01T04:15:07;1.40;99.90
51500;DHT22;39101;53.478;6.158;2023-03-01T04:17:45;0.60;99.90
51500;DHT22;39101;53.478;6.158;2023-03-01T04:20:21;0.50;99.90
51500;DHT22;39101;53.478;6.158;2023-03-01T04:22:52;1.50;99.90
51500;DHT22;39101;53.478;6.158;2023-03-01T04:25:19;0.60;99.90
51500;DHT22;39101;53.478;6.158;2023-03-01T04:27:44;0.60;99.90
51500;DHT22;39101;53.478;6.158;2023-03-01T04:30:10;1.30;99.90
51500;DHT22;39101;53.478;6.158;2023-03-01T04:32:36;0.50;99.90
51500;DHT22;39101;53.478;6.158;2023-03-01T04:35:02;0.50;99.90
51500;DHT22;39101;53.478;6.158;2023-03-01T04:37:28;0.50;99.90
51500;DHT22;39101;53.478;6.158;2023-03-01T04:39:55;0.40;99.90
51500;DHT22;39101;53.478;6.158;2023-03-01T04:42:20;1.60;99.90
51500;DHT22;39101;53.478;6.158;2023-03-01T04:44:46;0.40;99.90
51500;DHT22;39101;53.478;6.158;2023-03-01T04:47:12;0.50;99.90
51500;DHT22;39101;53.478;6.158;2023-03-01T04:49:38;0.40;99.90
51500;DHT22;39101;53.478;6.158;2023-03-01T04:52:04;0.40;99.90
51500;DHT22;39101;53.478;6.158;2023-03-01T04:54:32;0.30;99.90
51500;DHT22;39101;53.478;6.158;2023-03-01T04:56:59;0.30;99.90
51500;DHT22;39101;53.478;6.158;2023-03-01T04:59:26;0.60;99.90
51500;DHT22;39101;53.478;6.158;2023-03-01T05:01:56;0.30;99.90
51500;DHT22;39101;53.478;6.158;2023-03-01T05:04:25;0.30;99.90
51500;DHT22;39101;53.478;6.158;2023-03-01T05:06:51;0.30;99.90
51500;DHT22;39101;53.478;6.158;2023-03-01T05:09:23;0.20;99.90
51500;DHT22;39101;53.478;6.158;2023-03-01T05:11:48;0.20;99.90
51500;DHT22;39101;53.478;6.158;2023-03-01T05:14:15;0.30;99.90
51500;DHT22;39101;53.478;6.158;2023-03-01T05:16:41;0.30;99.90
51500;DHT22;39101;53.478;6.158;2023-03-01T05:19:06;1.30;99.90
51500;DHT22;39101;53.478;6.158;2023-03-01T05:21:44;1.40;99.90
51500;DHT22;39101;53.478;6.158;2023-03-01T05:24:34;0.20;99.90
51500;DHT22;39101;53.478;6.158;2023-03-01T05:27:02;0.20;99.90
51500;DHT22;39101;53.478;6.158;2023-03-01T05:29:28;0.20;99.90
51500;DHT22;39101;53.478;6.158;2023-03-01T05:31:56;0.70;99.90
51500;DHT22;39101;53.478;6.158;2023-03-01T05:34:35;0.80;99.90
51500;DHT22;39101;53.478;6.158;2023-03-01T05:37:09;0.10;99.90
51500;DHT22;39101;53.478;6.158;2023-03-01T05:39:34;0.10;99.90
51500;DHT22;39101;53.478;6.158;2023-03-01T05:42:01;0.00;99.90
51500;DHT22;39101;53.478;6.158;2023-03-01T05:44:28;0.10;99.90
51500;DHT22;39101;53.478;6.158;2023-03-01T05:46:55;0.10;99.90
51500;DHT22;39101;53.478;6.158;2023-03-01T05:49:22;0.10;99.90
51500;DHT22;39101;53.478;6.158;2023-03-01T05:51:52;0.00;99.90
51500;DHT22;39101;53.478;6.158;2023-03-01T05:54:19;0.00;99.90
51500;DHT22;39101;53.478;6.158;2023-03-01T05:56:45;0.00;99.90
51500;DHT22;39101;53.478;6.158;2023-03-01T05:59:11;0.00;99.90
51500;DHT22;39101;53.478;6.158;2023-03-01T06:01:37;0.00;99.90
51500;DHT22;39101;53.478;6.158;2023-03-01T06:04:03;0.00;99.90
51500;DHT22;39101;53.478;6.158;2023-03-01T06:06:29;-0.10;99.90
51500;DHT22;39101;53.478;6.158;2023-03-01T06:08:55;0.00;99.90
51500;DHT22;39101;53.478;6.158;2023-03-01T06:11:21;-0.10;99.90
51500;DHT22;39101;53.478;6.158;2023-03-01T06:13:47;-0.10;99.90
51500;DHT22;39101;53.478;6.158;2023-03-01T06:16:14;0.00;99.90
51500;DHT22;39101;53.478;6.158;2023-03-01T06:18:41;-0.10;99.90
51500;DHT22;39101;53.478;6.158;2023-03-01T06:21:07;0.00;99.90
51500;DHT22;39101;53.478;6.158;2023-03-01T06:23:34;0.00;99.90
51500;DHT22;39101;53.478;6.158;2023-03-01T06:26:04;1.30;99.90
51500;DHT22;39101;53.478;6.158;2023-03-01T06:28:30;0.10;99.90
51500;DHT22;39101;53.478;6.158;2023-03-01T06:30:56;0.10;99.90
51500;DHT22;39101;53.478;6.158;2023-03-01T06:33:22;0.00;99.90
51500;DHT22;39101;53.478;6.158;2023-03-01T06:35:51;-0.10;99.90
51500;DHT22;39101;53.478;6.158;2023-03-01T06:38:19;-0.10;99.90
51500;DHT22;39101;53.478;6.158;2023-03-01T06:40:50;-0.20;99.90
51500;DHT22;39101;53.478;6.158;2023-03-01T06:43:16;-0.20;99.90
51500;DHT22;39101;53.478;6.158;2023-03-01T06:45:42;0.00;99.90
51500;DHT22;39101;53.478;6.158;2023-03-01T06:48:08;-0.10;99.90
51500;DHT22;39101;53.478;6.158;2023-03-01T06:50:35;-0.10;99.90
51500;DHT22;39101;53.478;6.158;2023-03-01T06:53:06;1.30;99.90
51500;DHT22;39101;53.478;6.158;2023-03-01T06:55:32;0.00;99.90
51500;DHT22;39101;53.478;6.158;2023-03-01T06:57:59;-0.10;99.90
51500;DHT22;39101;53.478;6.158;2023-03-01T07:00:28;0.00;99.90
51500;DHT22;39101;53.478;6.158;2023-03-01T07:03:01;0.00;99.90
51500;DHT22;39101;53.478;6.158;2023-03-01T07:05:28;0.00;99.90
51500;DHT22;39101;53.478;6.158;2023-03-01T07:07:54;0.10;99.90
51500;DHT22;39101;53.478;6.158;2023-03-01T07:10:21;0.10;99.90
51500;DHT22;39101;53.478;6.158;2023-03-01T07:12:46;0.10;99.90
51500;DHT22;39101;53.478;6.158;2023-03-01T07:15:12;0.10;99.90
51500;DHT22;39101;53.478;6.158;2023-03-01T07:17:37;0.20;99.90
51500;DHT22;39101;53.478;6.158;2023-03-01T07:20:03;1.00;99.90
51500;DHT22;39101;53.478;6.158;2023-03-01T07:22:31;0.20;99.90
51500;DHT22;39101;53.478;6.158;2023-03-01T07:24:57;0.30;99.90
51500;DHT22;39101;53.478;6.158;2023-03-01T07:27:24;0.40;99.90
51500;DHT22;39101;53.478;6.158;2023-03-01T07:29:50;0.50;99.90
51500;DHT22;39101;53.478;6.158;2023-03-01T07:32:15;0.50;99.90
51500;DHT22;39101;53.478;6.158;2023-03-01T07:34:41;0.50;99.90
51500;DHT22;39101;53.478;6.158;2023-03-01T07:37:06;1.70;99.90
51500;DHT22;39101;53.478;6.158;2023-03-01T07:39:32;0.70;99.90
51500;DHT22;39101;53.478;6.158;2023-03-01T07:41:58;1.10;99.90
51500;DHT22;39101;53.478;6.158;2023-03-01T07:44:23;1.00;99.90
51500;DHT22;39101;53.478;6.158;2023-03-01T07:46:49;1.20;99.90
51500;DHT22;39101;53.478;6.158;2023-03-01T07:49:16;1.30;99.90
51500;DHT22;39101;53.478;6.158;2023-03-01T07:51:43;2.60;99.90
51500;DHT22;39101;53.478;6.158;2023-03-01T07:54:09;2.20;99.90
51500;DHT22;39101;53.478;6.158;2023-03-01T07:56:35;1.70;99.90
51500;DHT22;39101;53.478;6.158;2023-03-01T07:59:00;1.90;99.90
51500;DHT22;39101;53.478;6.158;2023-03-01T08:01:26;2.20;99.90
51500;DHT22;39101;53.478;6.158;2023-03-01T08:03:52;2.10;99.90
51500;DHT22;39101;53.478;6.158;2023-03-01T08:06:18;2.20;99.90
51500;DHT22;39101;53.478;6.158;2023-03-01T08:08:44;2.30;99.90
51500;DHT22;39101;53.478;6.158;2023-03-01T08:11:13;2.80;99.90
51500;DHT22;39101;53.478;6.158;2023-03-01T08:13:39;2.40;99.90
51500;DHT22;39101;53.478;6.158;2023-03-01T08:16:12;2.60;99.90
51500;DHT22;39101;53.478;6.158;2023-03-01T08:18:38;2.70;99.90
51500;DHT22;39101;53.478;6.158;2023-03-01T08:21:10;2.80;99.90
51500;DHT22;39101;53.478;6.158;2023-03-01T08:23:36;2.90;99.90
51500;DHT22;39101;53.478;6.158;2023-03-01T08:26:15;3.00;99.90
51500;DHT22;39101;53.478;6.158;2023-03-01T08:28:44;3.10;99.90
51500;DHT22;39101;53.478;6.158;2023-03-01T08:31:22;3.10;99.90
51500;DHT22;39101;53.478;6.158;2023-03-01T08:33:50;3.30;99.90
51500;DHT22;39101;53.478;6.158;2023-03-01T08:36:43;3.30;99.90
51500;DHT22;39101;53.478;6.158;2023-03-01T08:39:12;3.50;99.90
51500;DHT22;39101;53.478;6.158;2023-03-01T08:41:39;3.50;99.90
51500;DHT22;39101;53.478;6.158;2023-03-01T08:44:05;3.50;99.90
51500;DHT22;39101;53.478;6.158;2023-03-01T08:46:35;3.60;99.90
51500;DHT22;39101;53.478;6.158;2023-03-01T08:49:07;3.80;99.90
51500;DHT22;39101;53.478;6.158;2023-03-01T08:51:34;3.80;99.90
51500;DHT22;39101;53.478;6.158;2023-03-01T08:54:17;3.90;99.90
51500;DHT22;39101;53.478;6.158;2023-03-01T08:56:43;3.90;99.90
51500;DHT22;39101;53.478;6.158;2023-03-01T08:59:13;4.00;99.90
51500;DHT22;39101;53.478;6.158;2023-03-01T09:01:39;4.00;99.90
51500;DHT22;39101;53.478;6.158;2023-03-01T09:04:12;4.10;99.90
51500;DHT22;39101;53.478;6.158;2023-03-01T09:06:39;4.10;99.90
51500;DHT22;39101;53.478;6.158;2023-03-01T09:09:07;4.30;99.90
51500;DHT22;39101;53.478;6.158;2023-03-01T09:11:37;4.30;99.90
51500;DHT22;39101;53.478;6.158;2023-03-01T09:14:05;4.40;99.90
51500;DHT22;39101;53.478;6.158;2023-03-01T09:16:30;4.40;99.90
51500;DHT22;39101;53.478;6.158;2023-03-01T09:19:04;4.60;99.90
51500;DHT22;39101;53.478;6.158;2023-03-01T09:21:29;4.70;99.90
51500;DHT22;39101;53.478;6.158;2023-03-01T09:23:56;4.70;99.90
51500;DHT22;39101;53.478;6.158;2023-03-01T09:26:23;4.80;99.90
51500;DHT22;39101;53.478;6.158;2023-03-01T09:28:51;4.80;99.90
51500;DHT22;39101;53.478;6.158;2023-03-01T09:31:19;4.70;99.90
51500;DHT22;39101;53.478;6.158;2023-03-01T09:33:50;4.70;99.90
51500;DHT22;39101;53.478;6.158;2023-03-01T09:36:19;4.70;99.90
51500;DHT22;39101;53.478;6.158;2023-03-01T09:38:50;5.00;99.90
51500;DHT22;39101;53.478;6.158;2023-03-01T09:43:55;5.20;99.90
51500;DHT22;39101;53.478;6.158;2023-03-01T09:46:24;5.30;99.90
51500;DHT22;39101;53.478;6.158;2023-03-01T09:48:56;5.40;99.90
51500;DHT22;39101;53.478;6.158;2023-03-01T09:51:31;5.20;99.90
51500;DHT22;39101;53.478;6.158;2023-03-01T09:53:57;5.20;99.90
51500;DHT22;39101;53.478;6.158;2023-03-01T09:56:41;5.30;99.90
51500;DHT22;39101;53.478;6.158;2023-03-01T09:59:30;5.40;99.90
51500;DHT22;39101;53.478;6.158;2023-03-01T10:04:51;5.80;99.90
51500;DHT22;39101;53.478;6.158;2023-03-01T10:07:54;5.90;99.90
51500;DHT22;39101;53.478;6.158;2023-03-01T10:10:32;6.00;99.90
51500;DHT22;39101;53.478;6.158;2023-03-01T10:13:25;6.10;99.90
51500;DHT22;39101;53.478;6.158;2023-03-01T10:15:57;6.30;99.90
51500;DHT22;39101;53.478;6.158;2023-03-01T10:18:28;6.40;99.90
51500;DHT22;39101;53.478;6.158;2023-03-01T10:21:17;6.60;99.90
51500;DHT22;39101;53.478;6.158;2023-03-01T10:23:44;6.50;99.90
51500;DHT22;39101;53.478;6.158;2023-03-01T10:26:48;6.70;99.90
51500;DHT22;39101;53.478;6.158;2023-03-01T10:29:15;6.80;99.90
51500;DHT22;39101;53.478;6.158;2023-03-01T10:31:50;6.80;99.90
51500;DHT22;39101;53.478;6.158;2023-03-01T10:36:51;6.90;99.90
51500;DHT22;39101;53.478;6.158;2023-03-01T10:39:23;7.00;99.90
51500;DHT22;39101;53.478;6.158;2023-03-01T10:42:01;7.00;99.90
51500;DHT22;39101;53.478;6.158;2023-03-01T10:44:40;7.00;99.90
51500;DHT22;39101;53.478;6.158;2023-03-01T10:47:16;7.00;99.90
51500;DHT22;39101;53.478;6.158;2023-03-01T10:50:02;7.10;99.90
51500;DHT22;39101;53.478;6.158;2023-03-01T10:52:40;7.00;99.90
51500;DHT22;39101;53.478;6.158;2023-03-01T10:57:41;7.00;99.90
51500;DHT22;39101;53.478;6.158;2023-03-01T11:03:13;7.10;99.90
51500;DHT22;39101;53.478;6.158;2023-03-01T11:06:39;7.20;99.90
51500;DHT22;39101;53.478;6.158;2023-03-01T11:08:44;7.30;99.90
51500;DHT22;39101;53.478;6.158;2023-03-01T11:13:56;7.30;99.90
51500;DHT22;39101;53.478;6.158;2023-03-01T11:16:37;7.40;99.90
51500;DHT22;39101;53.478;6.158;2023-03-01T11:21:57;7.50;99.90
51500;DHT22;39101;53.478;6.158;2023-03-01T11:24:37;7.60;99.90
51500;DHT22;39101;53.478;6.158;2023-03-01T11:27:21;7.60;99.90
51500;DHT22;39101;53.478;6.158;2023-03-01T11:32:25;7.90;99.90
51500;DHT22;39101;53.478;6.158;2023-03-01T11:34:59;7.90;99.90
51500;DHT22;39101;53.478;6.158;2023-03-01T11:37:41;8.00;99.90
51500;DHT22;39101;53.478;6.158;2023-03-01T11:40:25;7.90;99.90
51500;DHT22;39101;53.478;6.158;2023-03-01T11:46:06;7.90;99.90
51500;DHT22;39101;53.478;6.158;2023-03-01T11:51:24;8.00;99.90
51500;DHT22;39101;53.478;6.158;2023-03-01T11:54:06;8.00;99.90
51500;DHT22;39101;53.478;6.158;2023-03-01T11:56:39;8.00;99.90
51500;DHT22;39101;53.478;6.158;2023-03-01T12:10:02;7.90;99.90
51500;DHT22;39101;53.478;6.158;2023-03-01T12:15:42;7.90;99.90
51500;DHT22;39101;53.478;6.158;2023-03-01T12:26:19;8.00;99.90
51500;DHT22;39101;53.478;6.158;2023-03-01T12:37:29;7.90;99.90
51500;DHT22;39101;53.478;6.158;2023-03-01T12:43:06;7.90;99.90
51500;DHT22;39101;53.478;6.158;2023-03-01T12:46:03;7.80;99.90
51500;DHT22;39101;53.478;6.158;2023-03-01T12:51:31;7.70;99.90
51500;DHT22;39101;53.478;6.158;2023-03-01T12:53:58;7.80;99.90
51500;DHT22;39101;53.478;6.158;2023-03-01T12:56:31;7.70;99.90
51500;DHT22;39101;53.478;6.158;2023-03-01T13:07:39;7.70;99.90
51500;DHT22;39101;53.478;6.158;2023-03-01T13:10:24;7.70;99.90
51500;DHT22;39101;53.478;6.158;2023-03-01T13:13:13;7.80;99.90
51500;DHT22;39101;53.478;6.158;2023-03-01T13:15:39;7.80;99.90
51500;DHT22;39101;53.478;6.158;2023-03-01T13:20:50;7.90;99.90
51500;DHT22;39101;53.478;6.158;2023-03-01T13:26:17;8.00;99.90
51500;DHT22;39101;53.478;6.158;2023-03-01T13:28:52;8.00;99.90
51500;DHT22;39101;53.478;6.158;2023-03-01T13:33:49;8.10;99.90
51500;DHT22;39101;53.478;6.158;2023-03-01T13:39:44;8.40;99.90
51500;DHT22;39101;53.478;6.158;2023-03-01T13:41:56;8.40;99.90
51500;DHT22;39101;53.478;6.158;2023-03-01T13:44:33;8.60;99.90
51500;DHT22;39101;53.478;6.158;2023-03-01T13:50:02;8.50;99.90
51500;DHT22;39101;53.478;6.158;2023-03-01T13:57:44;8.30;99.90
51500;DHT22;39101;53.478;6.158;2023-03-01T14:00:38;8.10;99.90
51500;DHT22;39101;53.478;6.158;2023-03-01T14:03:14;8.10;99.90
51500;DHT22;39101;53.478;6.158;2023-03-01T14:06:05;8.20;99.90
51500;DHT22;39101;53.478;6.158;2023-03-01T14:08:31;8.20;99.90
51500;DHT22;39101;53.478;6.158;2023-03-01T14:17:22;8.40;99.90
51500;DHT22;39101;53.478;6.158;2023-03-01T14:20:02;8.40;99.90
51500;DHT22;39101;53.478;6.158;2023-03-01T14:22:36;8.40;99.90
51500;DHT22;39101;53.478;6.158;2023-03-01T14:27:58;8.50;99.90
51500;DHT22;39101;53.478;6.158;2023-03-01T14:30:32;8.50;99.90
51500;DHT22;39101;53.478;6.158;2023-03-01T14:33:05;8.50;99.90
51500;DHT22;39101;53.478;6.158;2023-03-01T14:35:34;8.40;99.90
51500;DHT22;39101;53.478;6.158;2023-03-01T14:38:01;8.30;99.90
51500;DHT22;39101;53.478;6.158;2023-03-01T14:40:34;8.20;99.90
51500;DHT22;39101;53.478;6.158;2023-03-01T14:43:11;8.10;99.90
51500;DHT22;39101;53.478;6.158;2023-03-01T14:45:37;8.00;99.90
51500;DHT22;39101;53.478;6.158;2023-03-01T14:48:05;7.90;99.90
51500;DHT22;39101;53.478;6.158;2023-03-01T14:50:34;7.90;99.90
51500;DHT22;39101;53.478;6.158;2023-03-01T14:53:03;7.90;99.90
51500;DHT22;39101;53.478;6.158;2023-03-01T14:55:31;7.70;99.90
51500;DHT22;39101;53.478;6.158;2023-03-01T14:57:58;7.70;99.90
51500;DHT22;39101;53.478;6.158;2023-03-01T15:00:26;7.60;99.90
51500;DHT22;39101;53.478;6.158;2023-03-01T15:02:54;7.60;99.90
51500;DHT22;39101;53.478;6.158;2023-03-01T15:07:53;7.70;99.90
51500;DHT22;39101;53.478;6.158;2023-03-01T15:10:24;7.70;99.90
51500;DHT22;39101;53.478;6.158;2023-03-01T15:12:49;7.60;99.90
51500;DHT22;39101;53.478;6.158;2023-03-01T15:17:56;7.30;99.90
51500;DHT22;39101;53.478;6.158;2023-03-01T15:20:25;7.40;99.90
51500;DHT22;39101;53.478;6.158;2023-03-01T15:22:52;7.40;99.90
51500;DHT22;39101;53.478;6.158;2023-03-01T15:25:44;7.40;99.90
51500;DHT22;39101;53.478;6.158;2023-03-01T15:28:19;7.30;99.90
51500;DHT22;39101;53.478;6.158;2023-03-01T15:30:57;7.20;99.90
51500;DHT22;39101;53.478;6.158;2023-03-01T15:33:37;7.30;99.90
51500;DHT22;39101;53.478;6.158;2023-03-01T15:36:39;7.40;99.90
51500;DHT22;39101;53.478;6.158;2023-03-01T15:41:51;7.70;99.90
51500;DHT22;39101;53.478;6.158;2023-03-01T15:44:28;7.70;99.90
51500;DHT22;39101;53.478;6.158;2023-03-01T15:46:54;7.70;99.90
51500;DHT22;39101;53.478;6.158;2023-03-01T15:49:35;7.50;99.90
51500;DHT22;39101;53.478;6.158;2023-03-01T15:52:04;7.40;99.90
51500;DHT22;39101;53.478;6.158;2023-03-01T15:54:31;7.30;99.90
51500;DHT22;39101;53.478;6.158;2023-03-01T15:56:56;7.40;99.90
51500;DHT22;39101;53.478;6.158;2023-03-01T15:59:22;7.50;99.90
51500;DHT22;39101;53.478;6.158;2023-03-01T16:01:50;7.40;99.90
51500;DHT22;39101;53.478;6.158;2023-03-01T16:04:18;7.60;99.90
51500;DHT22;39101;53.478;6.158;2023-03-01T16:06:51;7.80;99.90
51500;DHT22;39101;53.478;6.158;2023-03-01T16:09:25;7.80;99.90
51500;DHT22;39101;53.478;6.158;2023-03-01T16:11:52;7.80;99.90
51500;DHT22;39101;53.478;6.158;2023-03-01T16:14:18;7.50;99.90
51500;DHT22;39101;53.478;6.158;2023-03-01T16:16:45;7.30;99.90
51500;DHT22;39101;53.478;6.158;2023-03-01T16:19:11;7.10;99.90
51500;DHT22;39101;53.478;6.158;2023-03-01T16:21:37;7.00;99.90
51500;DHT22;39101;53.478;6.158;2023-03-01T16:24:03;6.80;99.90
51500;DHT22;39101;53.478;6.158;2023-03-01T16:26:29;6.70;99.90
51500;DHT22;39101;53.478;6.158;2023-03-01T16:28:58;6.60;99.90
51500;DHT22;39101;53.478;6.158;2023-03-01T16:31:24;6.40;99.90
51500;DHT22;39101;53.478;6.158;2023-03-01T16:33:54;6.40;99.90
51500;DHT22;39101;53.478;6.158;2023-03-01T16:36:22;6.30;99.90
51500;DHT22;39101;53.478;6.158;2023-03-01T16:38:55;6.10;99.90
51500;DHT22;39101;53.478;6.158;2023-03-01T16:41:23;6.10;99.90
51500;DHT22;39101;53.478;6.158;2023-03-01T16:43:50;6.00;99.90
51500;DHT22;39101;53.478;6.158;2023-03-01T16:46:27;5.90;99.90
51500;DHT22;39101;53.478;6.158;2023-03-01T16:48:54;5.90;99.90
51500;DHT22;39101;53.478;6.158;2023-03-01T16:51:20;5.80;99.90
51500;DHT22;39101;53.478;6.158;2023-03-01T16:53:46;5.70;99.90
51500;DHT22;39101;53.478;6.158;2023-03-01T16:56:12;5.70;99.90
51500;DHT22;39101;53.478;6.158;2023-03-01T16:58:40;5.60;99.90
51500;DHT22;39101;53.478;6.158;2023-03-01T17:01:07;5.50;99.90
51500;DHT22;39101;53.478;6.158;2023-03-01T17:03:40;5.40;99.90
51500;DHT22;39101;53.478;6.158;2023-03-01T17:06:12;5.30;99.90
51500;DHT22;39101;53.478;6.158;2023-03-01T17:08:39;5.20;99.90
51500;DHT22;39101;53.478;6.158;2023-03-01T17:11:07;5.10;99.90
51500;DHT22;39101;53.478;6.158;2023-03-01T17:13:33;5.00;99.90
51500;DHT22;39101;53.478;6.158;2023-03-01T17:16:01;4.90;99.90
51500;DHT22;39101;53.478;6.158;2023-03-01T17:18:27;4.90;99.90
51500;DHT22;39101;53.478;6.158;2023-03-01T17:20:53;4.80;99.90
51500;DHT22;39101;53.478;6.158;2023-03-01T17:23:19;4.70;99.90
51500;DHT22;39101;53.478;6.158;2023-03-01T17:25:45;4.80;99.90
51500;DHT22;39101;53.478;6.158;2023-03-01T17:28:11;4.70;99.90
51500;DHT22;39101;53.478;6.158;2023-03-01T17:30:40;4.60;99.90
51500;DHT22;39101;53.478;6.158;2023-03-01T17:33:06;4.50;99.90
51500;DHT22;39101;53.478;6.158;2023-03-01T17:35:31;4.50;99.90
51500;DHT22;39101;53.478;6.158;2023-03-01T17:38:01;4.40;99.90
51500;DHT22;39101;53.478;6.158;2023-03-01T17:40:27;4.50;99.90
51500;DHT22;39101;53.478;6.158;2023-03-01T17:42:52;4.40;99.90
51500;DHT22;39101;53.478;6.158;2023-03-01T17:45:18;4.50;99.90
51500;DHT22;39101;53.478;6.158;2023-03-01T17:47:44;4.30;99.90
51500;DHT22;39101;53.478;6.158;2023-03-01T17:50:10;4.30;99.90
51500;DHT22;39101;53.478;6.158;2023-03-01T17:52:36;4.30;99.90
51500;DHT22;39101;53.478;6.158;2023-03-01T17:55:03;4.20;99.90
51500;DHT22;39101;53.478;6.158;2023-03-01T17:57:29;4.20;99.90
51500;DHT22;39101;53.478;6.158;2023-03-01T17:59:55;4.10;99.90
51500;DHT22;39101;53.478;6.158;2023-03-01T18:02:21;4.10;99.90